createdAt,value
2017-08-25T00:00:28.943Z,0
2017-08-25T00:01:28.644Z,0
2017-08-25T00:02:29.448Z,0
2017-08-25T00:03:29.179Z,0
2017-08-25T00:04:29.808Z,0
2017-08-25T00:05:29.549Z,0
2017-08-25T00:06:29.878Z,0
2017-08-25T00:07:29.390Z,0
2017-08-25T00:08:30.331Z,0
2017-08-25T00:09:30.076Z,0
2017-08-25T00:10:29.763Z,0
2017-08-25T00:11:30.101Z,0
2017-08-25T00:12:30.810Z,0
2017-08-25T00:13:30.819Z,0
2017-08-25T00:14:30.838Z,0
2017-08-25T00:15:30.905Z,0
2017-08-25T00:16:30.308Z,0
2017-08-25T00:17:31.134Z,0
2017-08-25T00:18:40.489Z,0
2017-08-25T00:19:31.457Z,0
2017-08-25T00:20:30.884Z,0
2017-08-25T00:21:31.542Z,0
2017-08-25T00:22:31.299Z,0
2017-08-25T00:23:32.305Z,0
2017-08-25T00:24:32.010Z,0
2017-08-25T00:25:32.619Z,0
2017-08-25T00:26:32.654Z,0
2017-08-25T00:27:32.382Z,0
2017-08-25T00:28:32.786Z,0
2017-08-25T00:29:33.110Z,0
2017-08-25T00:30:33.157Z,0
2017-08-25T00:31:33.517Z,0
2017-08-25T00:33:07.651Z,0
2017-08-25T00:33:35.948Z,0
2017-08-25T00:34:36.286Z,0
2017-08-25T00:35:35.707Z,0
2017-08-25T00:36:36.680Z,0
2017-08-25T00:37:36.415Z,0
2017-08-25T00:38:36.720Z,0
2017-08-25T00:39:36.460Z,0
2017-08-25T00:40:36.788Z,0
2017-08-25T00:41:36.788Z,0
2017-08-25T00:42:36.843Z,0
2017-08-25T00:43:37.178Z,0
2017-08-25T00:44:37.238Z,0
2017-08-25T00:45:36.950Z,0
2017-08-25T00:46:36.955Z,0
2017-08-25T00:47:37.669Z,0
2017-08-25T00:48:37.704Z,0
2017-08-25T00:49:37.687Z,0
2017-08-25T00:50:37.400Z,0
2017-08-25T00:51:37.462Z,0
2017-08-25T00:52:37.800Z,0
2017-08-25T00:53:37.829Z,0
2017-08-25T00:54:37.217Z,0
2017-08-25T00:55:37.892Z,0
2017-08-25T00:56:37.279Z,0
2017-08-25T00:57:37.949Z,0
2017-08-25T00:58:37.970Z,0
2017-08-25T00:59:37.729Z,0
2017-08-25T01:00:38.063Z,0
2017-08-25T01:01:37.458Z,0
2017-08-25T01:02:37.809Z,0
2017-08-25T01:03:38.200Z,0
2017-08-25T01:04:38.158Z,0
2017-08-25T01:05:38.815Z,0
2017-08-25T01:06:38.562Z,0
2017-08-25T01:07:38.956Z,0
2017-08-25T01:08:38.600Z,0
2017-08-25T01:09:38.638Z,0
2017-08-25T01:10:39.004Z,0
2017-08-25T01:11:38.747Z,0
2017-08-25T01:12:39.061Z,0
2017-08-25T01:13:38.792Z,0
2017-08-25T01:14:39.127Z,0
2017-08-25T01:15:38.516Z,0
2017-08-25T01:16:39.122Z,0
2017-08-25T01:17:39.211Z,0
2017-08-25T01:18:39.250Z,0
2017-08-25T01:19:39.556Z,0
2017-08-25T01:20:39.585Z,0
2017-08-25T01:21:39.642Z,0
2017-08-25T01:22:39.669Z,0
2017-08-25T01:23:39.736Z,0
2017-08-25T01:24:39.734Z,0
2017-08-25T01:25:39.591Z,0
2017-08-25T01:26:39.793Z,0
2017-08-25T01:27:39.839Z,0
2017-08-25T01:28:39.910Z,0
2017-08-25T01:29:39.587Z,0
2017-08-25T01:30:39.712Z,0
2017-08-25T01:31:39.333Z,0
2017-08-25T01:32:39.969Z,0
2017-08-25T01:33:40.334Z,0
2017-08-25T01:34:40.361Z,0
2017-08-25T01:35:40.503Z,0
2017-08-25T01:36:40.408Z,0
2017-08-25T01:37:40.185Z,0
2017-08-25T01:38:40.192Z,0
2017-08-25T01:39:40.206Z,0
2017-08-25T01:40:39.907Z,0
2017-08-25T01:41:40.276Z,0
2017-08-25T01:42:40.969Z,0
2017-08-25T01:43:40.982Z,0
2017-08-25T01:44:40.739Z,0
2017-08-25T01:45:40.738Z,0
2017-08-25T01:46:41.075Z,0
2017-08-25T01:47:41.143Z,0
2017-08-25T01:48:41.120Z,0
2017-08-25T01:49:40.846Z,0
2017-08-25T01:50:40.911Z,0
2017-08-25T01:51:40.606Z,0
2017-08-25T01:52:40.952Z,0
2017-08-25T01:53:41.908Z,0
2017-08-25T01:54:41.941Z,0
2017-08-25T01:55:41.978Z,0
2017-08-25T01:56:42.022Z,0
2017-08-25T01:57:42.072Z,0
2017-08-25T01:58:41.798Z,0
2017-08-25T01:59:42.113Z,0
2017-08-25T02:00:42.151Z,0
2017-08-25T02:01:41.935Z,0
2017-08-25T02:02:42.263Z,0
2017-08-25T02:03:42.333Z,0
2017-08-25T02:04:42.284Z,0
2017-08-25T02:05:42.312Z,0
2017-08-25T02:06:42.340Z,0
2017-08-25T02:07:42.164Z,0
2017-08-25T02:08:42.413Z,0
2017-08-25T02:09:42.487Z,0
2017-08-25T02:10:42.143Z,0
2017-08-25T02:11:42.506Z,0
2017-08-25T02:12:42.533Z,0
2017-08-25T02:13:42.293Z,0
2017-08-25T02:14:42.609Z,0
2017-08-25T02:15:42.311Z,0
2017-08-25T02:16:42.749Z,0
2017-08-25T02:17:43.168Z,0
2017-08-25T02:18:42.851Z,0
2017-08-25T02:19:43.188Z,0
2017-08-25T02:20:43.198Z,0
2017-08-25T02:21:43.593Z,0
2017-08-25T02:22:43.893Z,0
2017-08-25T02:23:43.938Z,0
2017-08-25T02:24:43.335Z,0
2017-08-25T02:25:43.974Z,0
2017-08-25T02:26:44.014Z,0
2017-08-25T02:27:44.308Z,0
2017-08-25T02:28:44.981Z,0
2017-08-25T02:29:44.702Z,0
2017-08-25T02:30:45.017Z,0
2017-08-25T02:31:44.705Z,0
2017-08-25T02:32:44.760Z,0
2017-08-25T02:33:45.437Z,0
2017-08-25T02:34:45.451Z,0
2017-08-25T02:35:45.168Z,0
2017-08-25T02:36:45.523Z,0
2017-08-25T02:37:45.249Z,0
2017-08-25T02:38:45.292Z,0
2017-08-25T02:39:45.953Z,0
2017-08-25T02:40:45.693Z,0
2017-08-25T02:41:46.351Z,0
2017-08-25T02:42:46.378Z,0
2017-08-25T02:43:45.808Z,0
2017-08-25T02:44:46.749Z,0
2017-08-25T02:45:46.813Z,0
2017-08-25T02:46:46.209Z,0
2017-08-25T02:47:46.558Z,0
2017-08-25T02:48:46.946Z,0
2017-08-25T02:49:47.280Z,0
2017-08-25T02:50:47.005Z,0
2017-08-25T02:51:47.345Z,0
2017-08-25T02:52:47.062Z,0
2017-08-25T02:53:47.764Z,0
2017-08-25T02:54:47.762Z,0
2017-08-25T02:55:47.792Z,0
2017-08-25T02:56:47.536Z,0
2017-08-25T02:57:47.548Z,0
2017-08-25T02:58:47.247Z,0
2017-08-25T02:59:47.907Z,0
2017-08-25T03:00:47.921Z,0
2017-08-25T03:01:48.235Z,0
2017-08-25T03:02:48.582Z,0
2017-08-25T03:03:48.280Z,0
2017-08-25T03:04:48.319Z,0
2017-08-25T03:05:48.359Z,0
2017-08-25T03:06:48.386Z,0
2017-08-25T03:07:48.751Z,0
2017-08-25T03:08:48.764Z,0
2017-08-25T03:09:48.513Z,0
2017-08-25T03:10:48.928Z,0
2017-08-25T03:11:48.568Z,0
2017-08-25T03:12:49.207Z,0
2017-08-25T03:13:48.921Z,0
2017-08-25T03:14:49.259Z,0
2017-08-25T03:15:49.224Z,0
2017-08-25T03:16:49.346Z,0
2017-08-25T03:17:49.026Z,0
2017-08-25T03:18:49.714Z,0
2017-08-25T03:19:50.034Z,0
2017-08-25T03:20:50.070Z,0
2017-08-25T03:21:49.790Z,0
2017-08-25T03:22:50.136Z,0
2017-08-25T03:23:49.824Z,0
2017-08-25T03:24:50.211Z,0
2017-08-25T03:25:50.660Z,0
2017-08-25T03:26:50.863Z,0
2017-08-25T03:27:50.607Z,0
2017-08-25T03:28:50.942Z,0
2017-08-25T03:29:51.025Z,0
2017-08-25T03:30:51.708Z,0
2017-08-25T03:31:52.356Z,0
2017-08-25T03:32:52.380Z,0
2017-08-25T03:33:52.440Z,0
2017-08-25T03:34:52.444Z,0
2017-08-25T03:35:52.187Z,0
2017-08-25T03:36:52.508Z,0
2017-08-25T03:37:52.840Z,0
2017-08-25T03:38:52.566Z,0
2017-08-25T03:39:52.910Z,0
2017-08-25T03:40:52.946Z,0
2017-08-25T03:41:52.979Z,0
2017-08-25T03:42:52.711Z,4
2017-08-25T03:43:52.777Z,4
2017-08-25T03:44:53.074Z,4
2017-08-25T03:45:52.190Z,0
2017-08-25T03:46:52.868Z,4
2017-08-25T03:47:52.867Z,4
2017-08-25T03:48:53.534Z,8
2017-08-25T03:49:53.283Z,4
2017-08-25T03:50:53.603Z,8
2017-08-25T03:51:53.634Z,8
2017-08-25T03:52:53.662Z,8
2017-08-25T03:53:53.399Z,12
2017-08-25T03:54:53.710Z,16
2017-08-25T03:55:53.730Z,16
2017-08-25T03:56:53.747Z,16
2017-08-25T03:57:54.439Z,24
2017-08-25T03:58:54.137Z,24
2017-08-25T03:59:54.180Z,28
2017-08-25T04:00:54.859Z,28
2017-08-25T04:01:54.214Z,28
2017-08-25T04:02:54.244Z,28
2017-08-25T04:03:54.912Z,32
2017-08-25T04:04:54.946Z,32
2017-08-25T04:05:55.613Z,32
2017-08-25T04:06:55.031Z,36
2017-08-25T04:07:54.818Z,40
2017-08-25T04:08:55.790Z,40
2017-08-25T04:09:55.831Z,44
2017-08-25T04:10:55.858Z,44
2017-08-25T04:11:55.595Z,48
2017-08-25T04:12:55.256Z,52
2017-08-25T04:13:55.652Z,64
2017-08-25T04:14:55.692Z,68
2017-08-25T04:15:56.037Z,72
2017-08-25T04:16:56.076Z,72
2017-08-25T04:17:55.759Z,84
2017-08-25T04:18:56.388Z,92
2017-08-25T04:19:56.088Z,96
2017-08-25T04:20:56.479Z,100
2017-08-25T04:21:56.492Z,108
2017-08-25T04:22:56.210Z,112
2017-08-25T04:23:56.247Z,120
2017-08-25T04:24:56.293Z,128
2017-08-25T04:25:56.307Z,148
2017-08-25T04:26:56.440Z,164
2017-08-25T04:27:56.365Z,172
2017-08-25T04:28:56.422Z,188
2017-08-25T04:29:56.449Z,196
2017-08-25T04:30:56.776Z,204
2017-08-25T04:31:57.234Z,224
2017-08-25T04:32:57.472Z,248
2017-08-25T04:33:57.516Z,268
2017-08-25T04:34:57.573Z,272
2017-08-25T04:35:56.972Z,272
2017-08-25T04:36:57.415Z,276
2017-08-25T04:37:58.439Z,292
2017-08-25T04:38:58.136Z,296
2017-08-25T04:39:58.504Z,300
2017-08-25T04:40:58.554Z,324
2017-08-25T04:41:58.577Z,336
2017-08-25T04:42:58.298Z,340
2017-08-25T04:43:58.637Z,352
2017-08-25T04:44:58.058Z,364
2017-08-25T04:45:59.045Z,392
2017-08-25T04:46:58.870Z,408
2017-08-25T04:47:59.105Z,428
2017-08-25T04:48:59.118Z,460
2017-08-25T04:49:58.848Z,480
2017-08-25T04:50:59.489Z,496
2017-08-25T04:51:59.213Z,556
2017-08-25T04:52:59.575Z,596
2017-08-25T04:53:59.601Z,644
2017-08-25T04:54:59.633Z,680
2017-08-25T04:55:59.371Z,696
2017-08-25T04:56:59.374Z,732
2017-08-25T04:57:59.409Z,756
2017-08-25T04:58:59.122Z,772
2017-08-25T05:00:00.119Z,796
2017-08-25T05:00:59.827Z,864
2017-08-25T05:02:00.169Z,864
2017-08-25T05:03:00.195Z,836
2017-08-25T05:04:00.271Z,844
2017-08-25T05:04:59.964Z,900
2017-08-25T05:05:59.991Z,988
2017-08-25T05:07:00.025Z,976
2017-08-25T05:08:00.455Z,1092
2017-08-25T05:09:00.099Z,1120
2017-08-25T05:10:00.134Z,1092
2017-08-25T05:11:00.476Z,1028
2017-08-25T05:12:00.796Z,1068
2017-08-25T05:13:00.514Z,1064
2017-08-25T05:13:59.925Z,1004
2017-08-25T05:15:00.932Z,980
2017-08-25T05:16:00.956Z,976
2017-08-25T05:17:00.671Z,1040
2017-08-25T05:18:01.325Z,1080
2017-08-25T05:19:01.354Z,1076
2017-08-25T05:20:01.377Z,1160
2017-08-25T05:21:01.408Z,1232
2017-08-25T05:22:01.113Z,1332
2017-08-25T05:23:01.463Z,1404
2017-08-25T05:24:01.194Z,1468
2017-08-25T05:25:01.884Z,1512
2017-08-25T05:26:01.887Z,1520
2017-08-25T05:27:01.947Z,1580
2017-08-25T05:28:01.764Z,1604
2017-08-25T05:29:02.143Z,1664
2017-08-25T05:30:02.486Z,1736
2017-08-25T05:31:02.859Z,1828
2017-08-25T05:32:03.196Z,1896
2017-08-25T05:33:03.541Z,1852
2017-08-25T05:34:03.605Z,1876
2017-08-25T05:35:04.005Z,2064
2017-08-25T05:36:04.337Z,2300
2017-08-25T05:37:04.070Z,2524
2017-08-25T05:38:04.452Z,2776
2017-08-25T05:39:03.842Z,2980
2017-08-25T05:40:04.571Z,2936
2017-08-25T05:41:04.864Z,3400
2017-08-25T05:42:04.912Z,3672
2017-08-25T05:43:04.941Z,3656
2017-08-25T05:44:04.964Z,3800
2017-08-25T05:45:04.712Z,3932
2017-08-25T05:46:04.096Z,4084
2017-08-25T05:47:05.142Z,4052
2017-08-25T05:48:05.141Z,4180
2017-08-25T05:49:04.231Z,4620
2017-08-25T05:50:04.927Z,4872
2017-08-25T05:51:05.256Z,5076
2017-08-25T05:52:04.980Z,5048
2017-08-25T05:53:05.641Z,4924
2017-08-25T05:54:05.695Z,4564
2017-08-25T05:55:05.406Z,4808
2017-08-25T05:56:05.803Z,5148
2017-08-25T05:57:05.797Z,5100
2017-08-25T05:58:05.518Z,4720
2017-08-25T05:59:05.572Z,4664
2017-08-25T06:00:06.958Z,4836
2017-08-25T06:01:06.358Z,5336
2017-08-25T06:02:06.360Z,5428
2017-08-25T06:03:06.361Z,5820
2017-08-25T06:04:06.401Z,6144
2017-08-25T06:05:06.484Z,6452
2017-08-25T06:06:06.160Z,6288
2017-08-25T06:07:06.175Z,6328
2017-08-25T06:08:06.887Z,6300
2017-08-25T06:09:06.557Z,5916
2017-08-25T06:10:06.296Z,5812
2017-08-25T06:11:06.613Z,5488
2017-08-25T06:12:06.092Z,6036
2017-08-25T06:13:07.109Z,5112
2017-08-25T06:14:06.819Z,4676
2017-08-25T06:15:07.159Z,4472
2017-08-25T06:16:06.857Z,4268
2017-08-25T06:17:06.887Z,4128
2017-08-25T06:18:06.615Z,3764
2017-08-25T06:19:07.610Z,3676
2017-08-25T06:20:07.333Z,3648
2017-08-25T06:21:07.362Z,4016
2017-08-25T06:22:07.373Z,3832
2017-08-25T06:23:07.728Z,3828
2017-08-25T06:24:07.477Z,3772
2017-08-25T06:25:07.481Z,3780
2017-08-25T06:26:07.835Z,3952
2017-08-25T06:27:07.893Z,4016
2017-08-25T06:28:07.629Z,4032
2017-08-25T06:29:07.671Z,4112
2017-08-25T06:30:07.455Z,4560
2017-08-25T06:31:08.462Z,4556
2017-08-25T06:32:08.491Z,4316
2017-08-25T06:33:07.889Z,4156
2017-08-25T06:34:08.229Z,4440
2017-08-25T06:35:08.935Z,4748
2017-08-25T06:36:08.964Z,4892
2017-08-25T06:37:08.976Z,5288
2017-08-25T06:38:08.709Z,5096
2017-08-25T06:39:09.083Z,5068
2017-08-25T06:40:09.489Z,5784
2017-08-25T06:41:09.147Z,6308
2017-08-25T06:42:09.501Z,6324
2017-08-25T06:43:09.221Z,6120
2017-08-25T06:44:09.577Z,5932
2017-08-25T06:45:09.679Z,5972
2017-08-25T06:46:09.297Z,6172
2017-08-25T06:47:09.358Z,5944
2017-08-25T06:48:09.395Z,6052
2017-08-25T06:49:09.434Z,5984
2017-08-25T06:50:09.558Z,6196
2017-08-25T06:51:10.254Z,6564
2017-08-25T06:52:09.952Z,6460
2017-08-25T06:53:10.624Z,6824
2017-08-25T06:54:10.665Z,7048
2017-08-25T06:55:10.362Z,7212
2017-08-25T06:56:11.384Z,6988
2017-08-25T06:57:11.412Z,6168
2017-08-25T06:58:11.161Z,5696
2017-08-25T06:59:11.538Z,5560
2017-08-25T07:00:11.817Z,5912
2017-08-25T07:01:11.228Z,5712
2017-08-25T07:02:11.937Z,5468
2017-08-25T07:03:11.972Z,5484
2017-08-25T07:04:11.690Z,5612
2017-08-25T07:05:11.787Z,6128
2017-08-25T07:06:11.450Z,6672
2017-08-25T07:07:12.439Z,6936
2017-08-25T07:08:12.687Z,6488
2017-08-25T07:09:12.203Z,6396
2017-08-25T07:10:12.290Z,5972
2017-08-25T07:11:12.926Z,5276
2017-08-25T07:12:12.941Z,5348
2017-08-25T07:13:13.013Z,5392
2017-08-25T07:14:13.029Z,5948
2017-08-25T07:15:13.082Z,6300
2017-08-25T07:16:13.098Z,6512
2017-08-25T07:17:13.147Z,7080
2017-08-25T07:18:13.187Z,7804
2017-08-25T07:19:13.224Z,7884
2017-08-25T07:20:12.938Z,7584
2017-08-25T07:21:12.957Z,8112
2017-08-25T07:22:13.319Z,8796
2017-08-25T07:23:12.738Z,8972
2017-08-25T07:24:13.079Z,8360
2017-08-25T07:25:13.139Z,7992
2017-08-25T07:26:13.188Z,8924
2017-08-25T07:27:13.876Z,13180
2017-08-25T07:28:13.891Z,10224
2017-08-25T07:29:13.954Z,16512
2017-08-25T07:32:34.375Z,8708
2017-08-25T07:33:34.640Z,9216
2017-08-25T07:34:34.698Z,9192
2017-08-25T07:35:34.028Z,8588
2017-08-25T07:36:33.831Z,9264
2017-08-25T07:37:35.029Z,10736
2017-08-25T07:38:34.756Z,13252
2017-08-25T07:39:35.152Z,13420
2017-08-25T07:40:35.793Z,15936
2017-08-25T07:41:35.489Z,9556
2017-08-25T07:42:35.873Z,11916
2017-08-25T07:43:35.926Z,21952
2017-08-25T07:44:35.620Z,16704
2017-08-25T07:45:35.934Z,10716
2017-08-25T07:46:35.951Z,10832
2017-08-25T07:47:36.295Z,11524
2017-08-25T07:48:36.586Z,11860
2017-08-25T07:49:36.919Z,10280
2017-08-25T07:50:37.270Z,14552
2017-08-25T07:51:37.600Z,10180
2017-08-25T07:52:37.305Z,11500
2017-08-25T07:53:37.372Z,12628
2017-08-25T07:54:37.404Z,13496
2017-08-25T07:55:37.446Z,16032
2017-08-25T07:56:37.787Z,15392
2017-08-25T07:57:37.520Z,15872
2017-08-25T07:58:37.881Z,13364
2017-08-25T07:59:37.902Z,12928
2017-08-25T08:00:38.264Z,12204
2017-08-25T08:01:38.311Z,13652
2017-08-25T08:02:38.102Z,14600
2017-08-25T08:03:38.064Z,12796
2017-08-25T08:04:38.156Z,13176
2017-08-25T08:05:38.443Z,14536
2017-08-25T08:06:37.943Z,15180
2017-08-25T08:07:38.343Z,16544
2017-08-25T08:08:39.061Z,15648
2017-08-25T08:09:38.745Z,15808
2017-08-25T08:10:38.814Z,15424
2017-08-25T08:11:39.499Z,14872
2017-08-25T08:12:39.868Z,15808
2017-08-25T08:13:39.576Z,16736
2017-08-25T08:14:39.574Z,17760
2017-08-25T08:15:39.658Z,18496
2017-08-25T08:16:40.007Z,17984
2017-08-25T08:17:40.116Z,16960
2017-08-25T08:18:39.779Z,16384
2017-08-25T08:19:40.157Z,17280
2017-08-25T08:20:39.851Z,17152
2017-08-25T08:21:40.212Z,14544
2017-08-25T08:22:40.248Z,13868
2017-08-25T08:23:40.317Z,15200
2017-08-25T08:24:40.341Z,17408
2017-08-25T08:25:40.049Z,16960
2017-08-25T08:26:40.107Z,15616
2017-08-25T08:27:40.818Z,11120
2017-08-25T08:28:39.912Z,13452
2017-08-25T08:29:40.617Z,14108
2017-08-25T08:30:40.980Z,16448
2017-08-25T08:31:40.367Z,16800
2017-08-25T08:32:40.749Z,16704
2017-08-25T08:33:41.119Z,15936
2017-08-25T08:34:41.144Z,16224
2017-08-25T08:35:41.582Z,17152
2017-08-25T08:36:41.313Z,14492
2017-08-25T08:37:41.029Z,17280
2017-08-25T08:38:41.717Z,16192
2017-08-25T08:39:41.744Z,15616
2017-08-25T08:40:41.825Z,14484
2017-08-25T08:41:41.231Z,15236
2017-08-25T08:42:41.572Z,15276
2017-08-25T08:43:42.639Z,15128
2017-08-25T08:44:42.360Z,17216
2017-08-25T08:45:42.376Z,17376
2017-08-25T08:46:43.064Z,18336
2017-08-25T08:47:43.732Z,18176
2017-08-25T08:48:43.416Z,17440
2017-08-25T08:49:43.516Z,15680
2017-08-25T08:50:43.957Z,15392
2017-08-25T08:51:43.955Z,12032
2017-08-25T08:52:44.651Z,14604
2017-08-25T08:53:44.075Z,11192
2017-08-25T08:54:44.718Z,15232
2017-08-25T08:55:44.781Z,8680
2017-08-25T08:56:44.515Z,8288
2017-08-25T08:57:44.278Z,9596
2017-08-25T08:58:44.617Z,11664
2017-08-25T08:59:44.696Z,6912
2017-08-25T09:00:44.686Z,11032
2017-08-25T09:01:45.065Z,16256
2017-08-25T09:02:45.396Z,11880
2017-08-25T09:03:45.482Z,9212
2017-08-25T09:04:44.888Z,9072
2017-08-25T09:05:45.571Z,10524
2017-08-25T09:06:45.888Z,10168
2017-08-25T09:07:46.273Z,11296
2017-08-25T09:08:46.029Z,11212
2017-08-25T09:09:46.032Z,14128
2017-08-25T09:10:46.075Z,17536
2017-08-25T09:11:46.121Z,14176
2017-08-25T09:12:46.124Z,16352
2017-08-25T09:13:45.552Z,17344
2017-08-25T09:14:45.879Z,21856
2017-08-25T09:15:46.920Z,19968
2017-08-25T09:16:46.361Z,17280
2017-08-25T09:17:46.693Z,20448
2017-08-25T09:18:46.432Z,18144
2017-08-25T09:19:46.758Z,15328
2017-08-25T09:20:47.152Z,14996
2017-08-25T09:21:46.920Z,17696
2017-08-25T09:22:47.232Z,20032
2017-08-25T09:23:46.995Z,18080
2017-08-25T09:24:47.031Z,15968
2017-08-25T09:25:46.796Z,13352
2017-08-25T09:26:47.477Z,14820
2017-08-25T09:27:47.515Z,14268
2017-08-25T09:28:47.585Z,13100
2017-08-25T09:29:47.624Z,20320
2017-08-25T09:30:47.660Z,15052
2017-08-25T09:31:48.319Z,14304
2017-08-25T09:32:48.369Z,23168
2017-08-25T09:33:48.114Z,26304
2017-08-25T09:34:48.466Z,17248
2017-08-25T09:35:48.223Z,21568
2017-08-25T09:36:48.592Z,35424
2017-08-25T09:37:48.665Z,33696
2017-08-25T09:38:49.013Z,16928
2017-08-25T09:39:49.685Z,12332
2017-08-25T09:40:49.714Z,14164
2017-08-25T09:41:49.794Z,15712
2017-08-25T09:42:49.206Z,11256
2017-08-25T09:43:49.890Z,11264
2017-08-25T09:44:50.617Z,9808
2017-08-25T09:45:50.026Z,11208
2017-08-25T09:46:51.019Z,30688
2017-08-25T09:47:51.084Z,10552
2017-08-25T09:48:51.400Z,8808
2017-08-25T09:49:50.833Z,9160
2017-08-25T09:50:51.495Z,23360
2017-08-25T09:51:51.259Z,10164
2017-08-25T09:52:50.998Z,7936
2017-08-25T09:53:51.029Z,6728
2017-08-25T09:54:51.698Z,5752
2017-08-25T09:55:50.773Z,5004
2017-08-25T09:56:51.758Z,4600
2017-08-25T09:57:51.826Z,4992
2017-08-25T09:58:51.214Z,4952
2017-08-25T09:59:51.550Z,5008
2017-08-25T10:00:51.900Z,6132
2017-08-25T10:01:51.357Z,7244
2017-08-25T10:02:52.034Z,7184
2017-08-25T10:03:52.058Z,29312
2017-08-25T10:04:51.793Z,14068
2017-08-25T10:05:52.479Z,34144
2017-08-25T10:06:52.180Z,37760
2017-08-25T10:07:52.858Z,33024
2017-08-25T10:08:52.227Z,38592
2017-08-25T10:09:52.669Z,22272
2017-08-25T10:10:52.648Z,57248
2017-08-25T10:11:52.111Z,59200
2017-08-25T10:12:52.078Z,58016
2017-08-25T10:13:53.090Z,57632
2017-08-25T10:14:53.131Z,59456
2017-08-25T10:15:52.868Z,58112
2017-08-25T10:16:53.528Z,51808
2017-08-25T10:17:53.278Z,51776
2017-08-25T10:18:52.662Z,48320
2017-08-25T10:19:53.336Z,43712
2017-08-25T10:20:53.700Z,41856
2017-08-25T10:21:53.116Z,45312
2017-08-25T10:22:53.779Z,50240
2017-08-25T10:23:53.494Z,15940
2017-08-25T10:24:53.861Z,23264
2017-08-25T10:25:53.637Z,46368
2017-08-25T10:26:53.649Z,14436
2017-08-25T10:27:53.723Z,9220
2017-08-25T10:28:54.362Z,8124
2017-08-25T10:29:54.082Z,6260
2017-08-25T10:30:53.830Z,6732
2017-08-25T10:31:54.535Z,16896
2017-08-25T10:32:54.237Z,11548
2017-08-25T10:33:54.255Z,10984
2017-08-25T10:34:54.257Z,13876
2017-08-25T10:35:55.257Z,11780
2017-08-25T10:36:54.987Z,14996
2017-08-25T10:37:55.052Z,64928
2017-08-25T10:38:56.089Z,57888
2017-08-25T10:39:55.804Z,52320
2017-08-25T10:40:56.139Z,64032
2017-08-25T10:41:56.171Z,58720
2017-08-25T10:42:56.868Z,43872
2017-08-25T10:43:56.604Z,57728
2017-08-25T10:44:56.948Z,62464
2017-08-25T10:45:56.966Z,60896
2017-08-25T10:46:56.727Z,63552
2017-08-25T10:47:56.469Z,59424
2017-08-25T10:48:57.430Z,42784
2017-08-25T10:49:56.874Z,19072
2017-08-25T10:50:57.274Z,14144
2017-08-25T10:51:56.947Z,13448
2017-08-25T10:52:57.023Z,14044
2017-08-25T10:53:57.390Z,13620
2017-08-25T10:54:57.851Z,11704
2017-08-25T10:55:57.521Z,12068
2017-08-25T10:56:58.184Z,11484
2017-08-25T10:57:57.908Z,10612
2017-08-25T10:58:58.295Z,10048
2017-08-25T10:59:58.343Z,7480
2017-08-25T11:00:58.059Z,8740
2017-08-25T11:01:58.436Z,9616
2017-08-25T11:02:58.838Z,10052
2017-08-25T11:03:59.170Z,9320
2017-08-25T11:04:59.533Z,12792
2017-08-25T11:05:58.972Z,12908
2017-08-25T11:06:59.694Z,12500
2017-08-25T11:07:59.753Z,12680
2017-08-25T11:09:00.036Z,13404
2017-08-25T11:09:59.767Z,14092
2017-08-25T11:10:59.806Z,13764
2017-08-25T11:11:59.203Z,13212
2017-08-25T11:12:59.887Z,13892
2017-08-25T11:13:59.897Z,13440
2017-08-25T11:14:59.928Z,12768
2017-08-25T11:16:00.377Z,13352
2017-08-25T11:16:59.707Z,13260
2017-08-25T11:18:00.091Z,12508
2017-08-25T11:19:00.070Z,11072
2017-08-25T11:19:59.860Z,8212
2017-08-25T11:21:00.849Z,5464
2017-08-25T11:22:00.272Z,5132
2017-08-25T11:23:00.962Z,6104
2017-08-25T11:24:00.389Z,6664
2017-08-25T11:25:01.347Z,7600
2017-08-25T11:26:00.775Z,8948
2017-08-25T11:27:01.440Z,8444
2017-08-25T11:28:00.853Z,9724
2017-08-25T11:29:00.945Z,9196
2017-08-25T11:30:01.669Z,11068
2017-08-25T11:31:01.373Z,12604
2017-08-25T11:32:01.764Z,10220
2017-08-25T11:33:01.438Z,9480
2017-08-25T11:34:01.812Z,8972
2017-08-25T11:35:01.568Z,6936
2017-08-25T11:36:02.027Z,6068
2017-08-25T11:37:02.443Z,6400
2017-08-25T11:38:02.790Z,7472
2017-08-25T11:39:02.476Z,7236
2017-08-25T11:40:02.519Z,7652
2017-08-25T11:41:02.315Z,8112
2017-08-25T11:42:02.677Z,7528
2017-08-25T11:43:03.305Z,7124
2017-08-25T11:44:03.362Z,6024
2017-08-25T11:45:03.707Z,5440
2017-08-25T11:46:03.470Z,8148
2017-08-25T11:47:04.139Z,9612
2017-08-25T11:48:03.845Z,9008
2017-08-25T11:49:03.616Z,8556
2017-08-25T11:50:03.977Z,8112
2017-08-25T11:51:03.966Z,7964
2017-08-25T11:52:04.338Z,8100
2017-08-25T11:53:03.391Z,7928
2017-08-25T11:54:04.398Z,7704
2017-08-25T11:55:04.486Z,8272
2017-08-25T11:56:04.567Z,8612
2017-08-25T11:57:04.605Z,8524
2017-08-25T11:58:04.940Z,8060
2017-08-25T11:59:04.983Z,6336
2017-08-25T12:00:05.052Z,6860
2017-08-25T12:01:04.753Z,7508
2017-08-25T12:02:05.083Z,8956
2017-08-25T12:03:05.497Z,8828
2017-08-25T12:04:06.261Z,7896
2017-08-25T12:05:05.589Z,7580
2017-08-25T12:06:06.621Z,6700
2017-08-25T12:07:05.993Z,6596
2017-08-25T12:08:06.715Z,7000
2017-08-25T12:09:06.447Z,8208
2017-08-25T12:10:07.143Z,9260
2017-08-25T12:11:06.808Z,9832
2017-08-25T12:12:06.863Z,9132
2017-08-25T12:13:06.265Z,8460
2017-08-25T12:14:08.635Z,7636
2017-08-25T12:15:07.447Z,6348
2017-08-25T12:16:07.510Z,5852
2017-08-25T12:17:07.789Z,5500
2017-08-25T12:18:07.891Z,5136
2017-08-25T12:19:07.952Z,4676
2017-08-25T12:20:07.802Z,4276
2017-08-25T12:21:08.063Z,4436
2017-08-25T12:22:07.467Z,4564
2017-08-25T12:23:08.066Z,4796
2017-08-25T12:24:08.090Z,4804
2017-08-25T12:25:08.511Z,4880
2017-08-25T12:26:09.205Z,4796
2017-08-25T12:27:09.205Z,4684
2017-08-25T12:28:09.232Z,4492
2017-08-25T12:29:09.317Z,5232
2017-08-25T12:30:09.432Z,6436
2017-08-25T12:31:09.377Z,6924
2017-08-25T12:32:09.130Z,6124
2017-08-25T12:33:09.778Z,5748
2017-08-25T12:34:09.872Z,6416
2017-08-25T12:35:09.600Z,6992
2017-08-25T12:36:09.914Z,7400
2017-08-25T12:37:09.592Z,6776
2017-08-25T12:38:09.994Z,6180
2017-08-25T12:39:10.020Z,5312
2017-08-25T12:40:09.789Z,4716
2017-08-25T12:41:10.122Z,3936
2017-08-25T12:42:09.920Z,4468
2017-08-25T12:43:10.652Z,5052
2017-08-25T12:44:10.397Z,5132
2017-08-25T12:45:10.342Z,4832
2017-08-25T12:46:10.678Z,4812
2017-08-25T12:47:10.096Z,5904
2017-08-25T12:48:10.782Z,6640
2017-08-25T12:49:10.850Z,7244
2017-08-25T12:50:11.207Z,7240
2017-08-25T12:51:11.274Z,6816
2017-08-25T12:52:11.338Z,6236
2017-08-25T12:53:11.620Z,5916
2017-08-25T12:54:11.049Z,5788
2017-08-25T12:55:11.758Z,6448
2017-08-25T12:56:11.811Z,5816
2017-08-25T12:57:11.475Z,4976
2017-08-25T12:58:10.969Z,4128
2017-08-25T12:59:11.124Z,3848
2017-08-25T13:00:12.069Z,3920
2017-08-25T13:01:11.802Z,4640
2017-08-25T13:02:12.129Z,4592
2017-08-25T13:03:11.933Z,4760
2017-08-25T13:04:12.589Z,4744
2017-08-25T13:05:12.327Z,4840
2017-08-25T13:06:12.082Z,5680
2017-08-25T13:07:12.528Z,6032
2017-08-25T13:08:12.974Z,6476
2017-08-25T13:09:13.741Z,5912
2017-08-25T13:10:14.140Z,5876
2017-08-25T13:11:14.779Z,6132
2017-08-25T13:12:14.826Z,5572
2017-08-25T13:13:15.305Z,4412
2017-08-25T13:14:15.674Z,4200
2017-08-25T13:15:16.001Z,4060
2017-08-25T13:16:16.071Z,4204
2017-08-25T13:17:16.103Z,4580
2017-08-25T13:18:16.163Z,4500
2017-08-25T13:19:16.480Z,4524
2017-08-25T13:20:17.164Z,5412
2017-08-25T13:21:16.898Z,6224
2017-08-25T13:22:16.965Z,6264
2017-08-25T13:23:17.008Z,6716
2017-08-25T13:24:17.658Z,6580
2017-08-25T13:25:17.408Z,6456
2017-08-25T13:26:17.762Z,6544
2017-08-25T13:27:17.195Z,6404
2017-08-25T13:28:17.857Z,5324
2017-08-25T13:29:17.565Z,4460
2017-08-25T13:30:18.223Z,3840
2017-08-25T13:31:18.258Z,3392
2017-08-25T13:32:17.986Z,3220
2017-08-25T13:33:18.058Z,3220
2017-08-25T13:34:18.095Z,3416
2017-08-25T13:35:18.108Z,3364
2017-08-25T13:36:17.867Z,3716
2017-08-25T13:37:18.189Z,4044
2017-08-25T13:38:18.289Z,4804
2017-08-25T13:39:18.294Z,4444
2017-08-25T13:40:18.339Z,3836
2017-08-25T13:41:18.712Z,3812
2017-08-25T13:42:18.404Z,4116